TOM4EM EGCC-LEAL
Flight info
| Callsign | TOM4EM |
|---|---|
| Flight time | N/A |
| Altitude | 35000 |
| Route | LISTO P18 TELBA L151 KIDLI UN859 SOPIL DCT BALAN DCT LMG DCT PIMQO DCT AGN DCT ANETO DCT POSSY DCT XIMPE DCT RIMES N860 VLC |
| Aircraft | B738/M-SDE2E3FGHIRWXY/LB1 |
Departure
| Time | N/A |
|---|---|
| Airport | Manchester Airport (EGCC) |
Arrival
| Time | 2026-05-07 12:59 |
|---|---|
| Airport | Alicante-Elche Miguel Hernández Airport (LEAL) |
| Time | Latitude | Longitude | Altitude | Speed | Heading |
|---|---|---|---|---|---|
| 2026-05-07 12:00 | 43.93653 | 0.88492 | 34972 ft | 428 kts | 192° |
| 2026-05-07 12:00 | 43.87807 | 0.87047 | 34971 ft | 427 kts | 193° |
| 2026-05-07 12:01 | 43.81988 | 0.85523 | 34971 ft | 427 kts | 193° |
| 2026-05-07 12:01 | 43.76170 | 0.83949 | 34968 ft | 426 kts | 193° |
| 2026-05-07 12:02 | 43.70342 | 0.82375 | 34968 ft | 426 kts | 193° |
| 2026-05-07 12:02 | 43.64541 | 0.80818 | 34962 ft | 425 kts | 193° |
| 2026-05-07 12:03 | 43.58734 | 0.79270 | 34965 ft | 424 kts | 193° |
| 2026-05-07 12:03 | 43.52956 | 0.77734 | 34967 ft | 424 kts | 193° |
| 2026-05-07 12:04 | 43.47174 | 0.76201 | 34968 ft | 424 kts | 193° |
| 2026-05-07 12:04 | 43.41394 | 0.74672 | 34964 ft | 424 kts | 193° |
| 2026-05-07 12:05 | 43.35609 | 0.73145 | 34965 ft | 424 kts | 193° |
| 2026-05-07 12:05 | 43.29806 | 0.71617 | 34965 ft | 424 kts | 193° |
| 2026-05-07 12:06 | 43.24013 | 0.70094 | 34967 ft | 424 kts | 193° |
| 2026-05-07 12:06 | 43.18209 | 0.68571 | 34966 ft | 424 kts | 193° |
| 2026-05-07 12:07 | 43.12436 | 0.67060 | 34966 ft | 424 kts | 193° |
| 2026-05-07 12:07 | 43.06623 | 0.65540 | 34965 ft | 425 kts | 193° |
| 2026-05-07 12:08 | 43.00816 | 0.64025 | 34957 ft | 425 kts | 193° |
| 2026-05-07 12:08 | 42.95020 | 0.62517 | 34956 ft | 424 kts | 193° |
| 2026-05-07 12:09 | 42.89208 | 0.61005 | 34963 ft | 424 kts | 193° |
| 2026-05-07 12:09 | 42.83424 | 0.59502 | 34963 ft | 423 kts | 193° |
| 2026-05-07 12:10 | 42.77638 | 0.58001 | 34954 ft | 424 kts | 193° |
| 2026-05-07 12:10 | 42.71852 | 0.56427 | 34952 ft | 421 kts | 196° |
| 2026-05-07 12:11 | 42.66327 | 0.53974 | 34957 ft | 418 kts | 204° |
| 2026-05-07 12:11 | 42.61035 | 0.50747 | 34966 ft | 418 kts | 207° |
| 2026-05-07 12:12 | 42.55811 | 0.47340 | 34970 ft | 417 kts | 207° |
| 2026-05-07 12:12 | 42.50542 | 0.43908 | 34970 ft | 418 kts | 207° |
| 2026-05-07 12:13 | 42.45321 | 0.40544 | 34973 ft | 417 kts | 207° |
| 2026-05-07 12:13 | 42.40060 | 0.37182 | 34972 ft | 417 kts | 207° |
| 2026-05-07 12:14 | 42.34824 | 0.33853 | 34976 ft | 417 kts | 206° |
| 2026-05-07 12:14 | 42.29591 | 0.30534 | 34970 ft | 416 kts | 206° |
| 2026-05-07 12:15 | 42.24354 | 0.27222 | 34966 ft | 415 kts | 206° |
| 2026-05-07 12:15 | 42.19150 | 0.23935 | 34959 ft | 415 kts | 206° |
| 2026-05-07 12:16 | 42.13909 | 0.20632 | 34955 ft | 415 kts | 206° |
| 2026-05-07 12:16 | 42.08591 | 0.17384 | 34956 ft | 426 kts | 203° |
| 2026-05-07 12:17 | 42.02891 | 0.15180 | 34953 ft | 427 kts | 192° |
| 2026-05-07 12:17 | 41.96977 | 0.14101 | 34949 ft | 428 kts | 188° |
| 2026-05-07 12:18 | 41.91045 | 0.13301 | 34950 ft | 428 kts | 188° |
| 2026-05-07 12:18 | 41.85139 | 0.12507 | 34947 ft | 428 kts | 188° |
| 2026-05-07 12:19 | 41.79214 | 0.11668 | 34946 ft | 427 kts | 189° |
| 2026-05-07 12:19 | 41.73311 | 0.10805 | 34946 ft | 427 kts | 189° |
| 2026-05-07 12:20 | 41.67403 | 0.09932 | 34946 ft | 425 kts | 189° |
| 2026-05-07 12:20 | 41.61548 | 0.09064 | 34944 ft | 425 kts | 189° |
| 2026-05-07 12:21 | 41.55643 | 0.08188 | 34943 ft | 425 kts | 189° |
| 2026-05-07 12:21 | 41.49813 | 0.07325 | 34941 ft | 424 kts | 189° |
| 2026-05-07 12:22 | 41.43938 | 0.06457 | 34940 ft | 423 kts | 189° |
| 2026-05-07 12:22 | 41.38072 | 0.05592 | 34937 ft | 425 kts | 189° |
| 2026-05-07 12:23 | 41.32222 | 0.04731 | 34931 ft | 424 kts | 189° |
| 2026-05-07 12:23 | 41.26339 | 0.03867 | 34928 ft | 424 kts | 189° |
| 2026-05-07 12:24 | 41.20497 | 0.03010 | 34930 ft | 423 kts | 189° |
| 2026-05-07 12:24 | 41.14606 | 0.02148 | 34937 ft | 423 kts | 189° |
| 2026-05-07 12:25 | 41.08758 | 0.01293 | 34939 ft | 422 kts | 189° |
| 2026-05-07 12:25 | 41.02951 | 0.00444 | 34941 ft | 423 kts | 189° |
| 2026-05-07 12:26 | 40.97093 | -0.00413 | 34948 ft | 422 kts | 189° |
| 2026-05-07 12:26 | 40.91264 | -0.01263 | 34942 ft | 422 kts | 189° |
| 2026-05-07 12:27 | 40.85402 | -0.02117 | 34948 ft | 419 kts | 189° |
| 2026-05-07 12:27 | 40.79606 | -0.02958 | 34952 ft | 420 kts | 189° |
| 2026-05-07 12:28 | 40.73834 | -0.03794 | 34955 ft | 417 kts | 189° |
| 2026-05-07 12:28 | 40.68048 | -0.04632 | 34954 ft | 417 kts | 189° |
| 2026-05-07 12:29 | 40.62293 | -0.05464 | 34951 ft | 410 kts | 189° |
| 2026-05-07 12:29 | 40.56735 | -0.06342 | 34963 ft | 406 kts | 192° |
| 2026-05-07 12:30 | 40.51166 | -0.08075 | 34960 ft | 415 kts | 198° |
| 2026-05-07 12:30 | 40.48382 | -0.09167 | 35144 ft | 412 kts | 199° |
| 2026-05-07 12:30 | 40.45665 | -0.10274 | 35246 ft | 413 kts | 199° |
| 2026-05-07 12:31 | 40.40152 | -0.12524 | 35209 ft | 418 kts | 199° |
| 2026-05-07 12:31 | 40.37344 | -0.13665 | 35026 ft | 417 kts | 199° |
| 2026-05-07 12:31 | 40.34638 | -0.14749 | 34976 ft | 402 kts | 199° |
| 2026-05-07 12:32 | 40.29362 | -0.16841 | 34966 ft | 397 kts | 199° |
| 2026-05-07 12:32 | 40.24030 | -0.18948 | 34960 ft | 401 kts | 198° |
| 2026-05-07 12:33 | 40.16034 | -0.22091 | 34958 ft | 401 kts | 199° |
| 2026-05-07 12:33 | 40.10686 | -0.24190 | 34957 ft | 405 kts | 198° |
| 2026-05-07 12:34 | 40.05248 | -0.26320 | 34958 ft | 410 kts | 198° |
| 2026-05-07 12:34 | 39.99781 | -0.28453 | 34960 ft | 408 kts | 198° |
| 2026-05-07 12:35 | 39.94339 | -0.30569 | 34962 ft | 410 kts | 199° |
| 2026-05-07 12:35 | 39.88885 | -0.32691 | 34955 ft | 410 kts | 199° |
| 2026-05-07 12:36 | 39.83446 | -0.34805 | 34947 ft | 408 kts | 199° |
| 2026-05-07 12:36 | 39.77950 | -0.36939 | 34953 ft | 411 kts | 199° |
| 2026-05-07 12:37 | 39.72460 | -0.39067 | 34966 ft | 410 kts | 199° |
| 2026-05-07 12:37 | 39.66996 | -0.41182 | 34952 ft | 410 kts | 199° |
| 2026-05-07 12:38 | 39.61518 | -0.43298 | 34960 ft | 410 kts | 199° |
| 2026-05-07 12:38 | 39.56074 | -0.45400 | 34955 ft | 410 kts | 199° |
| 2026-05-07 12:39 | 39.50616 | -0.47502 | 34745 ft | 405 kts | 199° |
| 2026-05-07 12:39 | 39.47930 | -0.48532 | 34543 ft | 401 kts | 199° |
| 2026-05-07 12:39 | 39.45269 | -0.49519 | 34282 ft | 397 kts | 198° |
| 2026-05-07 12:40 | 39.42643 | -0.50461 | 33967 ft | 394 kts | 198° |
| 2026-05-07 12:40 | 39.39980 | -0.51402 | 33662 ft | 394 kts | 198° |
| 2026-05-07 12:40 | 39.37330 | -0.52336 | 33392 ft | 396 kts | 197° |
| 2026-05-07 12:40 | 39.34669 | -0.53276 | 33112 ft | 398 kts | 198° |
| 2026-05-07 12:41 | 39.31959 | -0.54234 | 32682 ft | 404 kts | 197° |
| 2026-05-07 12:41 | 39.29243 | -0.55196 | 32016 ft | 408 kts | 197° |
| 2026-05-07 12:41 | 39.26520 | -0.56161 | 31236 ft | 410 kts | 197° |
| 2026-05-07 12:41 | 39.23773 | -0.57134 | 30393 ft | 412 kts | 197° |
| 2026-05-07 12:42 | 39.20995 | -0.58118 | 29436 ft | 415 kts | 197° |
| 2026-05-07 12:42 | 39.18238 | -0.59092 | 28447 ft | 419 kts | 197° |
| 2026-05-07 12:42 | 39.15412 | -0.60093 | 27634 ft | 417 kts | 197° |
| 2026-05-07 12:42 | 39.12674 | -0.61059 | 26897 ft | 406 kts | 197° |
| 2026-05-07 12:43 | 39.09931 | -0.62029 | 26119 ft | 417 kts | 197° |
| 2026-05-07 12:43 | 39.07105 | -0.63035 | 25293 ft | 433 kts | 197° |
| 2026-05-07 12:43 | 39.04158 | -0.64086 | 24432 ft | 439 kts | 197° |
| 2026-05-07 12:43 | 39.01225 | -0.65127 | 23577 ft | 435 kts | 197° |
| 2026-05-07 12:44 | 38.98334 | -0.66150 | 22745 ft | 433 kts | 197° |
| 2026-05-07 12:44 | 38.95445 | -0.67173 | 21914 ft | 430 kts | 196° |
| 2026-05-07 12:44 | 38.92601 | -0.68179 | 21100 ft | 428 kts | 196° |
| 2026-05-07 12:44 | 38.89712 | -0.69198 | 20275 ft | 424 kts | 196° |
| 2026-05-07 12:45 | 38.86914 | -0.70183 | 19471 ft | 422 kts | 196° |
| 2026-05-07 12:45 | 38.84085 | -0.71179 | 18663 ft | 421 kts | 195° |
| 2026-05-07 12:45 | 38.81282 | -0.72166 | 17865 ft | 419 kts | 195° |
| 2026-05-07 12:45 | 38.78471 | -0.73154 | 17057 ft | 416 kts | 195° |
| 2026-05-07 12:46 | 38.75723 | -0.74119 | 16264 ft | 412 kts | 195° |
| 2026-05-07 12:46 | 38.72970 | -0.75085 | 15468 ft | 410 kts | 195° |
| 2026-05-07 12:46 | 38.70231 | -0.76046 | 14667 ft | 406 kts | 195° |
| 2026-05-07 12:46 | 38.67502 | -0.77001 | 13855 ft | 404 kts | 194° |
| 2026-05-07 12:47 | 38.64818 | -0.77939 | 13059 ft | 401 kts | 194° |
| 2026-05-07 12:47 | 38.62192 | -0.78854 | 12428 ft | 383 kts | 194° |
| 2026-05-07 12:47 | 38.59693 | -0.79726 | 12140 ft | 356 kts | 194° |
| 2026-05-07 12:47 | 38.57415 | -0.80519 | 11884 ft | 332 kts | 194° |
| 2026-05-07 12:48 | 38.55264 | -0.81266 | 11735 ft | 295 kts | 194° |
| 2026-05-07 12:48 | 38.53444 | -0.81975 | 11752 ft | 260 kts | 204° |
| 2026-05-07 12:48 | 38.52056 | -0.83236 | 11601 ft | 234 kts | 221° |
| 2026-05-07 12:48 | 38.50901 | -0.84606 | 11179 ft | 226 kts | 221° |
| 2026-05-07 12:49 | 38.49746 | -0.85973 | 10632 ft | 224 kts | 220° |
| 2026-05-07 12:49 | 38.48613 | -0.87292 | 10110 ft | 223 kts | 220° |
| 2026-05-07 12:49 | 38.47470 | -0.88622 | 9615 ft | 222 kts | 220° |
| 2026-05-07 12:49 | 38.46341 | -0.89939 | 9149 ft | 222 kts | 220° |
| 2026-05-07 12:50 | 38.45194 | -0.91276 | 8682 ft | 222 kts | 220° |
| 2026-05-07 12:50 | 38.44070 | -0.92583 | 8208 ft | 219 kts | 220° |
| 2026-05-07 12:50 | 38.42955 | -0.93876 | 7734 ft | 219 kts | 220° |
| 2026-05-07 12:50 | 38.41759 | -0.95078 | 7258 ft | 216 kts | 209° |
| 2026-05-07 12:51 | 38.40434 | -0.95918 | 6844 ft | 213 kts | 200° |
| 2026-05-07 12:51 | 38.39052 | -0.96602 | 6421 ft | 212 kts | 197° |
| 2026-05-07 12:51 | 38.37638 | -0.97119 | 5988 ft | 209 kts | 181° |
| 2026-05-07 12:51 | 38.36241 | -0.96914 | 5579 ft | 202 kts | 157° |
| 2026-05-07 12:52 | 38.35013 | -0.96139 | 5473 ft | 196 kts | 144° |
| 2026-05-07 12:52 | 38.33963 | -0.95025 | 5477 ft | 197 kts | 127° |
| 2026-05-07 12:52 | 38.33353 | -0.93498 | 5486 ft | 195 kts | 104° |
| 2026-05-07 12:52 | 38.33130 | -0.91782 | 5484 ft | 195 kts | 92° |
| 2026-05-07 12:53 | 38.33155 | -0.90068 | 5455 ft | 194 kts | 92° |
| 2026-05-07 12:53 | 38.33023 | -0.88354 | 5445 ft | 199 kts | 97° |
| 2026-05-07 12:53 | 38.32793 | -0.86647 | 5296 ft | 192 kts | 100° |
| 2026-05-07 12:53 | 38.32500 | -0.84982 | 5241 ft | 194 kts | 102° |
| 2026-05-07 12:54 | 38.32174 | -0.83304 | 5199 ft | 193 kts | 103° |
| 2026-05-07 12:54 | 38.31842 | -0.81598 | 4898 ft | 200 kts | 102° |
| 2026-05-07 12:54 | 38.31516 | -0.79929 | 4452 ft | 193 kts | 102° |
| 2026-05-07 12:54 | 38.31283 | -0.78300 | 4263 ft | 180 kts | 97° |
| 2026-05-07 12:55 | 38.31098 | -0.76710 | 4132 ft | 180 kts | 97° |
| 2026-05-07 12:55 | 38.30901 | -0.75155 | 3948 ft | 181 kts | 99° |
| 2026-05-07 12:55 | 38.30653 | -0.73586 | 3537 ft | 178 kts | 99° |
| 2026-05-07 12:55 | 38.30452 | -0.72069 | 3253 ft | 174 kts | 97° |
| 2026-05-07 12:56 | 38.30271 | -0.70569 | 3105 ft | 172 kts | 97° |
| 2026-05-07 12:56 | 38.30062 | -0.69044 | 2834 ft | 177 kts | 98° |
| 2026-05-07 12:56 | 38.29842 | -0.67523 | 2501 ft | 173 kts | 98° |
| 2026-05-07 12:56 | 38.29631 | -0.66048 | 2177 ft | 159 kts | 98° |
| 2026-05-07 12:57 | 38.29442 | -0.64705 | 1914 ft | 154 kts | 97° |
| 2026-05-07 12:57 | 38.29267 | -0.63364 | 1500 ft | 154 kts | 98° |
| 2026-05-07 12:57 | 38.29079 | -0.62065 | 1148 ft | 146 kts | 98° |
| 2026-05-07 12:57 | 38.28916 | -0.60803 | 805 ft | 147 kts | 98° |
| 2026-05-07 12:58 | 38.28740 | -0.59520 | 508 ft | 145 kts | 98° |
| 2026-05-07 12:58 | 38.28563 | -0.58286 | 296 ft | 141 kts | 98° |
| 2026-05-07 12:58 | 38.28397 | -0.57089 | 140 ft | 129 kts | 99° |
| 2026-05-07 12:58 | 38.28269 | -0.56191 | 102 ft | 74 kts | 99° |
| 2026-05-07 12:59 | 38.28215 | -0.55788 | 96 ft | 29 kts | 93° |
| 2026-05-07 12:59 | 38.28240 | -0.55565 | 94 ft | 16 kts | 72° |
| 2026-05-07 12:59 | 38.28265 | -0.55482 | 93 ft | 5 kts | 68° |
| 2026-05-07 12:59 | 38.28269 | -0.55469 | 93 ft | 1 kts | 68° |
| 2026-05-07 13:00 | 38.28274 | -0.55452 | 93 ft | 2 kts | 68° |
| 2026-05-07 13:00 | 38.28287 | -0.55422 | 91 ft | 5 kts | 46° |
| 2026-05-07 13:00 | 38.28325 | -0.55410 | 91 ft | 5 kts | 329° |
| 2026-05-07 13:00 | 38.28338 | -0.55435 | 92 ft | 3 kts | 292° |
| 2026-05-07 13:01 | 38.28347 | -0.55479 | 95 ft | 5 kts | 279° |
| 2026-05-07 13:01 | 38.28353 | -0.55522 | 97 ft | 5 kts | 280° |
| 2026-05-07 13:01 | 38.28363 | -0.55581 | 98 ft | 7 kts | 290° |
| 2026-05-07 13:01 | 38.28397 | -0.55608 | 99 ft | 4 kts | 356° |
| 2026-05-07 13:02 | 38.28439 | -0.55603 | 100 ft | 9 kts | 9° |
| 2026-05-07 13:02 | 38.28496 | -0.55618 | 101 ft | 7 kts | 310° |
| 2026-05-07 13:02 | 38.28511 | -0.55672 | 103 ft | 6 kts | 280° |
| 2026-05-07 13:02 | 38.28525 | -0.55724 | 103 ft | 6 kts | 320° |
| 2026-05-07 13:03 | 38.28559 | -0.55726 | 104 ft | 3 kts | 7° |
| 2026-05-07 13:03 | 38.28580 | -0.55722 | 104 ft | 2 kts | 10° |
| 2026-05-07 13:03 | 38.28589 | -0.55720 | 104 ft | 0 kts | 11° |
| 2026-05-07 13:03 | 38.28588 | -0.55720 | 104 ft | 0 kts | 11° |